createdAt,value
2023-05-02T00:02:08.705Z,100780.22
2023-05-02T00:05:12.326Z,100781.03
2023-05-02T00:08:18.234Z,100778.06
2023-05-02T00:11:22.920Z,100776.34
2023-05-02T00:14:26.486Z,100777.38
2023-05-02T00:17:29.608Z,100773.81
2023-05-02T00:20:33.111Z,100779.94
2023-05-02T00:23:36.672Z,100774.59
2023-05-02T00:26:41.142Z,100777.78
2023-05-02T00:29:44.670Z,100773.03
2023-05-02T00:32:48.078Z,100777.38
2023-05-02T00:35:51.317Z,100775.41
2023-05-02T00:38:54.738Z,100775.66
2023-05-02T00:41:59.842Z,100771.94
2023-05-02T00:45:06.807Z,100776.69
2023-05-02T00:48:12.160Z,100768.13
2023-05-02T00:51:15.301Z,100761.50
2023-05-02T00:54:18.557Z,100768.47
2023-05-02T00:57:23.079Z,100768.97
2023-05-02T01:00:34.006Z,100770.03
2023-05-02T01:03:48.005Z,100769.84
2023-05-02T01:07:14.066Z,100764.06
2023-05-02T01:10:31.424Z,100773.69
2023-05-02T01:13:38.813Z,100776.19
2023-05-02T01:16:44.673Z,100779.06
2023-05-02T01:19:54.976Z,100775.47
2023-05-02T01:23:06.020Z,100784.16
2023-05-02T01:26:18.818Z,100774.97
2023-05-02T01:29:24.477Z,100776.69
2023-05-02T01:32:31.147Z,100779.59
2023-05-02T01:35:36.792Z,100780.31
2023-05-02T01:38:40.992Z,100789.50
2023-05-02T01:41:46.892Z,100789.34
2023-05-02T01:44:55.620Z,100795.69
2023-05-02T01:47:59.685Z,100796.00
2023-05-02T01:51:04.760Z,100807.81
2023-05-02T01:54:10.121Z,100802.25
2023-05-02T01:57:14.225Z,100803.34
2023-05-02T02:00:20.749Z,100804.44
2023-05-02T02:03:25.553Z,100801.34
2023-05-02T02:06:30.033Z,100801.56
2023-05-02T02:09:33.191Z,100801.56
2023-05-02T02:12:43.549Z,100803.47
2023-05-02T02:15:52.235Z,100803.47
2023-05-02T02:18:57.592Z,100803.47
2023-05-02T02:22:04.177Z,100813.34
2023-05-02T02:25:11.796Z,100821.69
2023-05-02T02:28:14.967Z,100815.16
2023-05-02T02:31:19.413Z,100826.09
2023-05-02T02:34:23.014Z,100838.69
2023-05-02T02:37:33.000Z,100839.38
2023-05-02T02:40:46.045Z,100847.94
2023-05-02T02:44:02.375Z,100852.69
2023-05-02T02:47:14.278Z,100848.63
2023-05-02T02:50:24.376Z,100865.72
2023-05-02T02:53:35.988Z,100859.28
2023-05-02T02:56:42.964Z,100865.44
2023-05-02T02:59:54.543Z,100867.00
2023-05-02T03:02:59.016Z,100869.69
2023-05-02T03:06:02.594Z,100878.28
2023-05-02T03:09:05.850Z,100887.31
2023-05-02T03:12:08.825Z,100892.44
2023-05-02T03:15:37.878Z,100895.69
2023-05-02T03:18:42.849Z,100903.66
2023-05-02T03:21:46.091Z,100917.22
2023-05-02T03:24:54.236Z,100915.19
2023-05-02T03:27:58.441Z,100931.13
2023-05-02T03:31:01.768Z,100933.88
2023-05-02T03:34:09.672Z,100934.81
2023-05-02T03:37:14.548Z,100939.97
2023-05-02T03:40:21.652Z,100944.78
2023-05-02T03:43:24.905Z,100952.09
2023-05-02T03:46:28.827Z,100951.34
2023-05-02T03:49:36.100Z,100953.25
2023-05-02T03:52:39.778Z,100962.22
2023-05-02T03:55:43.251Z,100953.25
2023-05-02T03:58:53.912Z,100963.66
2023-05-02T04:02:00.633Z,100970.78
2023-05-02T04:05:14.937Z,100976.19
2023-05-02T04:08:18.416Z,100979.22
2023-05-02T04:11:22.065Z,100989.84
2023-05-02T04:14:25.363Z,100993.09
2023-05-02T04:17:30.392Z,100992.03
2023-05-02T04:20:35.076Z,100996.88
2023-05-02T04:23:38.301Z,101003.22
2023-05-02T04:26:42.176Z,101002.38
2023-05-02T04:29:51.944Z,101008.63
2023-05-02T04:32:56.000Z,101015.75
2023-05-02T04:36:02.202Z,101014.78
2023-05-02T04:39:07.926Z,101020.84
2023-05-02T04:42:13.345Z,101024.38
2023-05-02T04:45:23.774Z,101029.31
2023-05-02T04:48:27.611Z,101029.91
2023-05-02T04:51:34.513Z,101020.81
2023-05-02T04:54:37.615Z,101038.78
2023-05-02T04:57:40.969Z,101043.97
2023-05-02T05:00:47.252Z,101047.94
2023-05-02T05:03:50.468Z,101050.03
2023-05-02T05:06:56.026Z,101056.50
2023-05-02T05:10:00.691Z,101064.31
2023-05-02T05:13:08.512Z,101068.44
2023-05-02T05:16:12.083Z,101071.09
2023-05-02T05:19:15.558Z,101076.31
2023-05-02T05:22:20.250Z,101079.47
2023-05-02T05:25:23.683Z,101088.78
2023-05-02T05:28:28.070Z,101096.19
2023-05-02T05:31:31.793Z,101091.81
2023-05-02T05:34:39.118Z,101099.75
2023-05-02T05:37:44.597Z,101111.72
2023-05-02T05:40:51.124Z,101106.84
2023-05-02T05:49:04.774Z,101121.00
2023-05-02T05:52:08.212Z,101122.38
2023-05-02T05:55:13.647Z,101136.34
2023-05-02T05:58:17.100Z,101137.41
2023-05-02T06:01:21.285Z,101143.75
2023-05-02T06:04:24.581Z,101147.41
2023-05-02T06:07:29.619Z,101151.06
2023-05-02T06:10:34.247Z,101159.16
2023-05-02T06:13:37.416Z,101167.97
2023-05-02T06:16:40.651Z,101172.09
2023-05-02T06:19:43.758Z,101175.44
2023-05-02T06:22:47.006Z,101181.84
2023-05-02T06:25:51.350Z,101189.63
2023-05-02T06:28:55.818Z,101194.22
2023-05-02T06:31:59.785Z,101194.00
2023-05-02T06:35:02.916Z,101199.41
2023-05-02T06:38:06.089Z,101197.19
2023-05-02T06:41:15.855Z,101206.88
2023-05-02T06:44:22.722Z,101207.00
2023-05-02T06:47:26.345Z,101212.31
2023-05-02T06:50:30.914Z,101215.38
2023-05-02T06:53:34.258Z,101221.50
2023-05-02T06:56:38.616Z,101234.38
2023-05-02T06:59:41.706Z,101239.03
2023-05-02T07:02:45.469Z,101249.06
2023-05-02T07:05:48.570Z,101252.88
2023-05-02T07:08:51.690Z,101259.88
2023-05-02T07:11:56.065Z,101273.47
2023-05-02T07:14:59.074Z,101286.09
2023-05-02T07:18:02.198Z,101292.81
2023-05-02T07:21:05.556Z,101289.31
2023-05-02T07:24:08.580Z,101291.38
2023-05-02T07:27:14.162Z,101297.38
2023-05-02T07:30:17.235Z,101285.47
2023-05-02T07:33:20.282Z,101287.13
2023-05-02T07:36:23.342Z,101291.31
2023-05-02T07:39:26.848Z,101299.09
2023-05-02T07:42:31.726Z,101303.00
2023-05-02T07:45:35.349Z,101306.78
2023-05-02T07:48:39.055Z,101304.81
2023-05-02T07:51:42.549Z,101302.88
2023-05-02T07:54:45.614Z,101314.22
2023-05-02T07:57:49.929Z,101315.13
2023-05-02T08:00:52.983Z,101316.34
2023-05-02T08:03:56.368Z,101321.56
2023-05-02T08:07:00.814Z,101325.72
2023-05-02T08:10:04.437Z,101331.59
2023-05-02T08:13:09.072Z,101331.13
2023-05-02T08:16:12.760Z,101331.31
2023-05-02T08:19:16.646Z,101341.28
2023-05-02T08:22:19.597Z,101344.53
2023-05-02T08:25:24.900Z,101347.41
2023-05-02T08:28:29.908Z,101354.31
2023-05-02T08:31:33.477Z,101346.50
2023-05-02T08:34:36.737Z,101350.81
2023-05-02T08:37:40.575Z,101361.03
2023-05-02T08:40:43.583Z,101359.41
2023-05-02T08:43:48.374Z,101370.25
2023-05-02T08:46:53.483Z,101371.63
2023-05-02T08:49:58.205Z,101372.72
2023-05-02T08:53:01.631Z,101380.66
2023-05-02T08:56:05.381Z,101383.66
2023-05-02T08:59:09.710Z,101386.72
2023-05-02T09:02:42.291Z,101394.47
2023-05-02T09:05:47.648Z,101400.50
2023-05-02T09:08:53.024Z,101399.41
2023-05-02T09:11:56.012Z,101411.34
2023-05-02T09:15:14.213Z,101416.16
2023-05-02T09:18:21.562Z,101420.94
2023-05-02T09:21:26.719Z,101433.38
2023-05-02T09:24:30.154Z,101434.91
2023-05-02T09:27:51.092Z,101436.81
2023-05-02T09:31:08.763Z,101442.13
2023-05-02T09:34:14.043Z,101438.09
2023-05-02T09:37:35.997Z,101440.00
2023-05-02T09:40:39.275Z,101431.38
2023-05-02T09:43:43.441Z,101444.19
2023-05-02T09:46:49.607Z,101442.78
2023-05-02T09:49:52.824Z,101454.47
2023-05-02T09:53:03.737Z,101453.47
2023-05-02T09:56:07.809Z,101452.13
2023-05-02T09:59:14.952Z,101464.69
2023-05-02T10:02:20.297Z,101466.53
2023-05-02T10:05:23.617Z,101470.13
2023-05-02T10:08:28.469Z,101465.09
2023-05-02T10:11:33.636Z,101476.06
2023-05-02T10:14:42.430Z,101474.47
2023-05-02T10:17:50.622Z,101474.72
2023-05-02T10:21:00.029Z,101481.63
2023-05-02T10:24:03.581Z,101480.41
2023-05-02T10:27:06.959Z,101485.25
2023-05-02T10:30:11.583Z,101489.44
2023-05-02T10:33:18.980Z,101496.13
2023-05-02T10:36:24.033Z,101502.13
2023-05-02T10:39:28.238Z,101512.09
2023-05-02T10:42:32.201Z,101514.44
2023-05-02T10:45:37.463Z,101521.53
2023-05-02T10:48:41.952Z,101528.94
2023-05-02T10:51:45.016Z,101544.84
2023-05-02T10:54:48.087Z,101547.06
2023-05-02T10:58:23.340Z,101550.00
2023-05-02T11:01:42.877Z,101553.25
2023-05-02T11:05:04.939Z,101559.06
2023-05-02T11:08:31.650Z,101573.19
2023-05-02T11:11:43.120Z,101577.50
2023-05-02T11:14:50.090Z,101582.13
2023-05-02T11:18:03.557Z,101592.91
2023-05-02T11:21:29.630Z,101599.72
2023-05-02T11:24:39.966Z,101605.19
2023-05-02T11:27:44.581Z,101616.94
2023-05-02T11:30:57.425Z,101622.31
2023-05-02T11:34:02.900Z,101619.06
2023-05-02T11:37:14.449Z,101627.38
2023-05-02T11:40:20.019Z,101632.09
2023-05-02T11:43:29.277Z,101637.59
2023-05-02T11:46:34.105Z,101633.09
2023-05-02T11:49:38.419Z,101638.03
2023-05-02T11:52:44.535Z,101633.13
2023-05-02T11:55:49.390Z,101632.84
2023-05-02T11:59:03.513Z,101633.34
2023-05-02T12:02:07.773Z,101637.34
2023-05-02T12:05:13.012Z,101639.06
2023-05-02T12:08:22.697Z,101649.56
2023-05-02T12:11:28.647Z,101634.44
2023-05-02T12:14:33.475Z,101641.91
2023-05-02T12:17:40.975Z,101657.41
2023-05-02T12:20:44.953Z,101665.25
2023-05-02T12:23:49.883Z,101671.66
2023-05-02T12:27:13.767Z,101661.94
2023-05-02T12:30:27.488Z,101671.16
2023-05-02T12:33:30.588Z,101671.88
2023-05-02T12:36:34.378Z,101677.31
2023-05-02T12:39:40.825Z,101672.56
2023-05-02T12:42:44.748Z,101675.91
2023-05-02T12:45:49.583Z,101665.69
2023-05-02T12:49:03.788Z,101666.22
2023-05-02T12:52:06.783Z,101670.44
2023-05-02T12:55:24.641Z,101670.19
2023-05-02T12:58:28.573Z,101667.47
2023-05-02T13:01:32.413Z,101674.19
2023-05-02T13:04:37.268Z,101682.16
2023-05-02T13:07:40.369Z,101677.97
2023-05-02T13:10:44.906Z,101683.84
2023-05-02T13:13:47.922Z,101681.56
2023-05-02T13:16:53.461Z,101689.56
2023-05-02T13:20:01.480Z,101696.75
2023-05-02T13:23:06.820Z,101694.09
2023-05-02T13:26:12.088Z,101705.41
2023-05-02T13:29:15.173Z,101709.63
2023-05-02T13:32:18.612Z,101706.31
2023-05-02T13:35:21.808Z,101701.41
2023-05-02T13:38:24.897Z,101708.53
2023-05-02T13:41:30.953Z,101706.84
2023-05-02T13:44:34.158Z,101711.06
2023-05-02T13:47:38.765Z,101720.88
2023-05-02T13:50:42.598Z,101714.91
2023-05-02T13:53:45.732Z,101720.69
2023-05-02T13:56:50.052Z,101727.22
2023-05-02T13:59:53.032Z,101737.72
2023-05-02T14:02:56.194Z,101740.16
2023-05-02T14:05:59.630Z,101750.00
2023-05-02T14:09:02.870Z,101736.41
2023-05-02T14:12:10.247Z,101741.56
2023-05-02T14:15:13.723Z,101751.00
2023-05-02T14:18:17.306Z,101751.00
2023-05-02T14:21:20.848Z,101754.69
2023-05-02T14:24:23.901Z,101768.25
2023-05-02T14:27:28.243Z,101767.38
2023-05-02T14:30:32.135Z,101775.47
2023-05-02T14:33:35.577Z,101767.34
2023-05-02T14:36:38.597Z,101774.31
2023-05-02T14:39:42.559Z,101778.28
2023-05-02T14:42:46.890Z,101788.19
2023-05-02T14:45:50.330Z,101786.22
2023-05-02T14:48:53.310Z,101790.50
2023-05-02T14:51:57.822Z,101789.94
2023-05-02T14:55:01.903Z,101798.34
2023-05-02T14:58:08.776Z,101801.69
2023-05-02T15:01:18.451Z,101811.84
2023-05-02T15:04:21.912Z,101811.78
2023-05-02T15:07:25.219Z,101818.53
2023-05-02T15:10:28.352Z,101811.53
2023-05-02T15:13:32.716Z,101813.16
2023-05-02T15:16:37.048Z,101815.66
2023-05-02T15:19:40.182Z,101827.72
2023-05-02T15:22:43.221Z,101832.16
2023-05-02T15:25:46.350Z,101827.84
2023-05-02T15:28:50.791Z,101831.47
2023-05-02T15:31:54.538Z,101837.78
2023-05-02T15:34:57.541Z,101838.94
2023-05-02T15:38:00.691Z,101838.72
2023-05-02T15:41:03.724Z,101829.63
2023-05-02T15:44:08.197Z,101843.13
2023-05-02T15:47:11.206Z,101838.53
2023-05-02T15:50:14.720Z,101837.88
2023-05-02T15:53:19.314Z,101838.81
2023-05-02T15:56:22.560Z,101838.41
2023-05-02T15:59:26.995Z,101829.75
2023-05-02T16:02:32.445Z,101838.03
2023-05-02T16:05:36.926Z,101838.88
2023-05-02T16:08:40.060Z,101842.34
2023-05-02T16:11:44.359Z,101835.19
2023-05-02T16:14:48.800Z,101848.75
2023-05-02T16:17:52.108Z,101844.50
2023-05-02T16:20:56.953Z,101850.06
2023-05-02T16:23:59.948Z,101846.13
2023-05-02T16:27:02.963Z,101853.72
2023-05-02T16:30:09.452Z,101839.72
2023-05-02T16:33:12.767Z,101839.19
2023-05-02T16:36:16.081Z,101850.66
2023-05-02T16:39:19.123Z,101845.94
2023-05-02T16:42:22.130Z,101844.59
2023-05-02T16:45:26.696Z,101844.25
2023-05-02T16:48:30.153Z,101843.28
2023-05-02T16:51:33.171Z,101839.66
2023-05-02T16:54:36.208Z,101840.41
2023-05-02T16:57:39.223Z,101849.09
2023-05-02T17:00:43.969Z,101841.25
2023-05-02T17:03:47.085Z,101844.03
2023-05-02T17:06:50.226Z,101846.47
2023-05-02T17:09:53.701Z,101857.50
2023-05-02T17:12:58.576Z,101859.91
2023-05-02T17:16:03.465Z,101859.19
2023-05-02T17:19:07.302Z,101859.56
2023-05-02T17:22:10.563Z,101849.81
2023-05-02T17:25:13.985Z,101856.88
2023-05-02T17:28:17.156Z,101861.09
2023-05-02T17:31:21.727Z,101857.41
2023-05-02T17:34:28.494Z,101861.78
2023-05-02T17:37:32.807Z,101872.03
2023-05-02T17:40:37.456Z,101877.09
2023-05-02T17:43:42.906Z,101882.47
2023-05-02T17:46:47.678Z,101868.94
2023-05-02T17:49:51.326Z,101882.91
2023-05-02T17:52:54.489Z,101873.16
2023-05-02T17:55:57.665Z,101879.28
2023-05-02T17:59:00.740Z,101875.56
2023-05-02T18:02:05.867Z,101887.03
2023-05-02T18:05:10.586Z,101886.59
2023-05-02T18:08:13.738Z,101898.22
2023-05-02T18:11:18.011Z,101898.66
2023-05-02T18:14:22.586Z,101896.19
2023-05-02T18:17:27.048Z,101900.22
2023-05-02T18:20:30.175Z,101904.69
2023-05-02T18:23:36.000Z,101905.44
2023-05-02T18:26:39.102Z,101903.03
2023-05-02T18:29:42.340Z,101913.28
2023-05-02T18:32:47.173Z,101908.06
2023-05-02T18:35:50.705Z,101913.59
2023-05-02T18:38:53.901Z,101912.41
2023-05-02T18:41:57.132Z,101912.41
2023-05-02T18:45:01.268Z,101911.44
2023-05-02T18:48:07.887Z,101915.94
2023-05-02T18:51:11.366Z,101917.81
2023-05-02T18:54:14.746Z,101916.97
2023-05-02T18:57:18.038Z,101918.47
2023-05-02T19:00:24.405Z,101917.81
2023-05-02T19:03:29.183Z,101934.22
2023-05-02T19:06:33.353Z,101931.00
2023-05-02T19:09:36.831Z,101937.06
2023-05-02T19:12:40.789Z,101940.34
2023-05-02T19:15:44.969Z,101943.88
2023-05-02T19:18:52.359Z,101936.41
2023-05-02T19:21:55.713Z,101945.06
2023-05-02T19:24:59.106Z,101945.06
2023-05-02T19:28:02.173Z,101954.31
2023-05-02T19:31:10.322Z,101954.56
2023-05-02T19:34:14.707Z,101968.44
2023-05-02T19:37:17.869Z,101964.16
2023-05-02T19:40:21.054Z,101970.34
2023-05-02T19:43:24.172Z,101966.75
2023-05-02T19:46:27.353Z,101974.97
2023-05-02T19:49:31.829Z,101977.34
2023-05-02T19:52:34.897Z,101972.97
2023-05-02T19:55:40.080Z,101973.81
2023-05-02T19:58:45.241Z,101977.66
2023-05-02T20:01:48.618Z,101978.72
2023-05-02T20:04:54.920Z,101995.59
2023-05-02T20:07:58.032Z,102000.22
2023-05-02T20:11:01.090Z,101995.09
2023-05-02T20:14:04.143Z,101990.09
2023-05-02T20:17:07.991Z,101998.22
2023-05-02T20:20:14.016Z,101991.16
2023-05-02T20:23:17.162Z,102003.44
2023-05-02T20:26:21.335Z,102000.75
2023-05-02T20:29:24.900Z,102012.31
2023-05-02T20:32:28.162Z,102017.69
2023-05-02T20:35:32.566Z,102012.94
2023-05-02T20:38:35.641Z,102021.69
2023-05-02T20:41:38.705Z,102025.34
2023-05-02T20:44:42.038Z,102029.00
2023-05-02T20:47:46.970Z,102032.00
2023-05-02T20:50:55.417Z,102035.81
2023-05-02T20:53:59.501Z,102038.47
2023-05-02T20:57:03.592Z,102036.78
2023-05-02T21:00:11.328Z,102042.16
2023-05-02T21:03:14.447Z,102041.38
2023-05-02T21:06:19.994Z,102046.78
2023-05-02T21:09:23.219Z,102053.13
2023-05-02T21:12:26.309Z,102056.78
2023-05-02T21:15:29.423Z,102058.75
2023-05-02T21:18:32.487Z,102055.44
2023-05-02T21:21:36.906Z,102063.13
2023-05-02T21:24:40.072Z,102063.41
2023-05-02T21:27:43.188Z,102060.66
2023-05-02T21:30:46.318Z,102058.44
2023-05-02T21:33:49.331Z,102062.25
2023-05-02T21:36:53.704Z,102070.28
2023-05-02T21:39:57.051Z,102065.84
2023-05-02T21:43:00.159Z,102061.81
2023-05-02T21:46:03.195Z,102069.06
2023-05-02T21:49:06.487Z,102062.09
2023-05-02T21:52:10.915Z,102068.22
2023-05-02T21:55:13.923Z,102072.50
2023-05-02T21:58:16.999Z,102065.53
2023-05-02T22:01:20.223Z,102062.38
2023-05-02T22:04:23.845Z,102066.81
2023-05-02T22:07:28.295Z,102072.22
2023-05-02T22:10:32.185Z,102071.22
2023-05-02T22:13:35.491Z,102073.78
2023-05-02T22:16:40.001Z,102073.19
2023-05-02T22:19:43.069Z,102079.19
2023-05-02T22:22:47.346Z,102080.03
2023-05-02T22:25:50.913Z,102079.19
2023-05-02T22:28:53.904Z,102086.97
2023-05-02T22:31:57.048Z,102084.47
2023-05-02T22:35:00.226Z,102095.56
2023-05-02T22:38:09.809Z,102087.91
2023-05-02T22:41:12.839Z,102100.06
2023-05-02T22:44:16.074Z,102101.78
2023-05-02T22:47:19.395Z,102107.91
2023-05-02T22:50:22.506Z,102099.41
2023-05-02T22:53:26.868Z,102103.06
2023-05-02T22:56:30.000Z,102106.38
2023-05-02T22:59:33.112Z,102112.34
2023-05-02T23:02:36.406Z,102108.91
2023-05-02T23:05:40.028Z,102122.94
2023-05-02T23:08:44.443Z,102120.28
2023-05-02T23:11:47.523Z,102119.56
2023-05-02T23:14:50.716Z,102119.63
2023-05-02T23:17:53.727Z,102118.84
2023-05-02T23:20:56.897Z,102124.06
2023-05-02T23:24:01.293Z,102123.13
2023-05-02T23:27:06.233Z,102118.84
2023-05-02T23:30:10.579Z,102124.25
2023-05-02T23:33:13.794Z,102126.16
2023-05-02T23:36:17.010Z,102122.69
2023-05-02T23:39:21.840Z,102124.56
2023-05-02T23:42:25.124Z,102127.25
2023-05-02T23:45:28.296Z,102124.66
2023-05-02T23:48:31.466Z,102115.13
2023-05-02T23:51:34.492Z,102120.41
2023-05-02T23:54:38.963Z,102121.31
2023-05-02T23:57:42.567Z,102121.31
